sensor_id;sensor_type;location;lat;lon;timestamp;P1;durP1;ratioP1;P2;durP2;ratioP2
23388;SDS011;11867;51.198;11.966;2023-11-19T00:00:42;2.50;;;2.05;;
23388;SDS011;11867;51.198;11.966;2023-11-19T00:06:14;2.65;;;2.20;;
23388;SDS011;11867;51.198;11.966;2023-11-19T00:11:38;2.85;;;2.47;;
23388;SDS011;11867;51.198;11.966;2023-11-19T00:17:03;2.38;;;2.05;;
23388;SDS011;11867;51.198;11.966;2023-11-19T00:22:26;2.10;;;1.90;;
23388;SDS011;11867;51.198;11.966;2023-11-19T00:27:49;3.22;;;2.63;;
23388;SDS011;11867;51.198;11.966;2023-11-19T00:33:16;2.40;;;2.20;;
23388;SDS011;11867;51.198;11.966;2023-11-19T00:38:39;2.40;;;2.20;;
23388;SDS011;11867;51.198;11.966;2023-11-19T00:44:02;2.30;;;2.10;;
23388;SDS011;11867;51.198;11.966;2023-11-19T00:49:27;2.67;;;1.92;;
23388;SDS011;11867;51.198;11.966;2023-11-19T00:54:50;1.80;;;1.70;;
23388;SDS011;11867;51.198;11.966;2023-11-19T01:00:13;2.25;;;2.05;;
23388;SDS011;11867;51.198;11.966;2023-11-19T01:05:43;2.58;;;2.10;;
23388;SDS011;11867;51.198;11.966;2023-11-19T01:11:08;4.10;;;3.50;;
23388;SDS011;11867;51.198;11.966;2023-11-19T01:16:31;3.17;;;2.88;;
23388;SDS011;11867;51.198;11.966;2023-11-19T01:21:56;2.45;;;2.25;;
23388;SDS011;11867;51.198;11.966;2023-11-19T01:27:19;1.63;;;1.52;;
23388;SDS011;11867;51.198;11.966;2023-11-19T01:32:42;1.70;;;1.60;;
23388;SDS011;11867;51.198;11.966;2023-11-19T01:38:07;2.35;;;1.90;;
23388;SDS011;11867;51.198;11.966;2023-11-19T01:43:31;1.27;;;1.17;;
23388;SDS011;11867;51.198;11.966;2023-11-19T01:48:58;1.48;;;0.70;;
23388;SDS011;11867;51.198;11.966;2023-11-19T01:54:24;0.60;;;0.60;;
23388;SDS011;11867;51.198;11.966;2023-11-19T01:59:47;0.30;;;0.30;;
23388;SDS011;11867;51.198;11.966;2023-11-19T02:05:10;2.47;;;0.40;;
23388;SDS011;11867;51.198;11.966;2023-11-19T02:10:36;0.33;;;0.20;;
23388;SDS011;11867;51.198;11.966;2023-11-19T02:16:00;0.50;;;0.30;;
23388;SDS011;11867;51.198;11.966;2023-11-19T02:21:23;0.30;;;0.30;;
23388;SDS011;11867;51.198;11.966;2023-11-19T02:26:50;0.17;;;0.17;;
23388;SDS011;11867;51.198;11.966;2023-11-19T02:32:23;0.10;;;0.10;;
23388;SDS011;11867;51.198;11.966;2023-11-19T02:37:47;0.10;;;0.10;;
23388;SDS011;11867;51.198;11.966;2023-11-19T02:43:10;0.20;;;0.20;;
23388;SDS011;11867;51.198;11.966;2023-11-19T02:48:36;0.20;;;0.13;;
23388;SDS011;11867;51.198;11.966;2023-11-19T02:54:02;0.47;;;0.22;;
23388;SDS011;11867;51.198;11.966;2023-11-19T02:59:26;0.22;;;0.20;;
23388;SDS011;11867;51.198;11.966;2023-11-19T03:05:01;0.10;;;0.10;;
23388;SDS011;11867;51.198;11.966;2023-11-19T03:10:26;0.20;;;0.20;;
23388;SDS011;11867;51.198;11.966;2023-11-19T03:15:49;0.20;;;0.20;;
23388;SDS011;11867;51.198;11.966;2023-11-19T03:21:14;0.20;;;0.20;;
23388;SDS011;11867;51.198;11.966;2023-11-19T03:26:37;0.82;;;0.38;;
23388;SDS011;11867;51.198;11.966;2023-11-19T03:32:00;0.20;;;0.20;;
23388;SDS011;11867;51.198;11.966;2023-11-19T03:37:25;0.20;;;0.20;;
23388;SDS011;11867;51.198;11.966;2023-11-19T03:48:11;0.60;;;0.20;;
23388;SDS011;11867;51.198;11.966;2023-11-19T03:53:36;1.58;;;0.32;;
23388;SDS011;11867;51.198;11.966;2023-11-19T03:58:59;0.52;;;0.20;;
23388;SDS011;11867;51.198;11.966;2023-11-19T04:04:22;1.15;;;0.30;;
23388;SDS011;11867;51.198;11.966;2023-11-19T04:09:49;0.15;;;0.15;;
23388;SDS011;11867;51.198;11.966;2023-11-19T04:15:13;0.20;;;0.20;;
23388;SDS011;11867;51.198;11.966;2023-11-19T04:20:37;1.33;;;0.20;;
23388;SDS011;11867;51.198;11.966;2023-11-19T04:26:03;0.10;;;0.10;;
23388;SDS011;11867;51.198;11.966;2023-11-19T04:31:31;0.40;;;0.20;;
23388;SDS011;11867;51.198;11.966;2023-11-19T04:36:54;0.10;;;0.10;;
23388;SDS011;11867;51.198;11.966;2023-11-19T04:42:18;0.22;;;0.20;;
23388;SDS011;11867;51.198;11.966;2023-11-19T04:47:42;0.10;;;0.10;;
23388;SDS011;11867;51.198;11.966;2023-11-19T04:53:06;0.30;;;0.20;;
23388;SDS011;11867;51.198;11.966;2023-11-19T04:58:30;0.20;;;0.20;;
23388;SDS011;11867;51.198;11.966;2023-11-19T05:03:53;0.82;;;0.30;;
23388;SDS011;11867;51.198;11.966;2023-11-19T05:09:19;0.20;;;0.20;;
23388;SDS011;11867;51.198;11.966;2023-11-19T05:14:43;0.20;;;0.20;;
23388;SDS011;11867;51.198;11.966;2023-11-19T05:20:11;0.10;;;0.10;;
23388;SDS011;11867;51.198;11.966;2023-11-19T05:25:38;1.65;;;0.15;;
23388;SDS011;11867;51.198;11.966;2023-11-19T05:31:05;0.32;;;0.20;;
23388;SDS011;11867;51.198;11.966;2023-11-19T05:36:29;0.30;;;0.30;;
23388;SDS011;11867;51.198;11.966;2023-11-19T05:41:52;0.20;;;0.20;;
23388;SDS011;11867;51.198;11.966;2023-11-19T05:47:16;0.15;;;0.15;;
23388;SDS011;11867;51.198;11.966;2023-11-19T05:52:39;0.13;;;0.10;;
23388;SDS011;11867;51.198;11.966;2023-11-19T05:58:02;0.10;;;0.10;;
23388;SDS011;11867;51.198;11.966;2023-11-19T06:03:29;0.98;;;0.20;;
23388;SDS011;11867;51.198;11.966;2023-11-19T06:08:52;0.30;;;0.20;;
23388;SDS011;11867;51.198;11.966;2023-11-19T06:14:16;0.93;;;0.20;;
23388;SDS011;11867;51.198;11.966;2023-11-19T06:19:40;0.88;;;0.20;;
23388;SDS011;11867;51.198;11.966;2023-11-19T06:25:04;0.35;;;0.20;;
23388;SDS011;11867;51.198;11.966;2023-11-19T06:30:29;0.20;;;0.20;;
23388;SDS011;11867;51.198;11.966;2023-11-19T06:35:55;0.88;;;0.30;;
23388;SDS011;11867;51.198;11.966;2023-11-19T06:41:19;0.10;;;0.10;;
23388;SDS011;11867;51.198;11.966;2023-11-19T06:46:42;1.27;;;0.20;;
23388;SDS011;11867;51.198;11.966;2023-11-19T06:52:07;0.20;;;0.20;;
23388;SDS011;11867;51.198;11.966;2023-11-19T06:57:30;0.20;;;0.20;;
23388;SDS011;11867;51.198;11.966;2023-11-19T07:02:54;0.13;;;0.13;;
23388;SDS011;11867;51.198;11.966;2023-11-19T07:08:21;0.85;;;0.25;;
23388;SDS011;11867;51.198;11.966;2023-11-19T07:13:44;0.85;;;0.43;;
23388;SDS011;11867;51.198;11.966;2023-11-19T07:19:08;0.20;;;0.20;;
23388;SDS011;11867;51.198;11.966;2023-11-19T07:24:33;1.25;;;1.00;;
23388;SDS011;11867;51.198;11.966;2023-11-19T07:29:56;0.70;;;0.50;;
23388;SDS011;11867;51.198;11.966;2023-11-19T07:35:19;2.25;;;0.50;;
23388;SDS011;11867;51.198;11.966;2023-11-19T07:40:44;1.38;;;1.27;;
23388;SDS011;11867;51.198;11.966;2023-11-19T07:46:10;2.65;;;1.60;;
23388;SDS011;11867;51.198;11.966;2023-11-19T07:57:02;1.17;;;0.52;;
23388;SDS011;11867;51.198;11.966;2023-11-19T08:02:25;2.25;;;1.13;;
23388;SDS011;11867;51.198;11.966;2023-11-19T08:07:49;1.85;;;0.50;;
23388;SDS011;11867;51.198;11.966;2023-11-19T08:13:14;0.60;;;0.30;;
23388;SDS011;11867;51.198;11.966;2023-11-19T08:18:38;2.42;;;0.75;;
23388;SDS011;11867;51.198;11.966;2023-11-19T08:24:04;1.05;;;0.40;;
23388;SDS011;11867;51.198;11.966;2023-11-19T08:29:28;0.75;;;0.63;;
23388;SDS011;11867;51.198;11.966;2023-11-19T08:34:52;1.58;;;0.80;;
23388;SDS011;11867;51.198;11.966;2023-11-19T08:40:15;3.38;;;1.30;;
23388;SDS011;11867;51.198;11.966;2023-11-19T08:45:40;10.63;;;7.32;;
23388;SDS011;11867;51.198;11.966;2023-11-19T08:51:03;3.30;;;1.67;;
23388;SDS011;11867;51.198;11.966;2023-11-19T08:56:27;5.10;;;1.50;;
23388;SDS011;11867;51.198;11.966;2023-11-19T09:01:58;3.00;;;1.13;;
23388;SDS011;11867;51.198;11.966;2023-11-19T09:07:21;4.88;;;3.67;;
23388;SDS011;11867;51.198;11.966;2023-11-19T09:12:45;3.22;;;1.42;;
23388;SDS011;11867;51.198;11.966;2023-11-19T09:18:10;4.15;;;2.00;;
23388;SDS011;11867;51.198;11.966;2023-11-19T09:23:33;3.13;;;1.83;;
23388;SDS011;11867;51.198;11.966;2023-11-19T09:29:02;3.08;;;0.93;;
23388;SDS011;11867;51.198;11.966;2023-11-19T09:34:27;9.13;;;5.88;;
23388;SDS011;11867;51.198;11.966;2023-11-19T09:39:50;2.03;;;1.05;;
23388;SDS011;11867;51.198;11.966;2023-11-19T09:45:15;3.10;;;1.00;;
23388;SDS011;11867;51.198;11.966;2023-11-19T09:56:04;3.33;;;1.02;;
23388;SDS011;11867;51.198;11.966;2023-11-19T10:01:29;2.08;;;0.90;;
23388;SDS011;11867;51.198;11.966;2023-11-19T10:06:55;2.00;;;1.00;;
23388;SDS011;11867;51.198;11.966;2023-11-19T10:12:18;6.00;;;0.63;;
23388;SDS011;11867;51.198;11.966;2023-11-19T10:17:41;4.10;;;1.10;;
23388;SDS011;11867;51.198;11.966;2023-11-19T10:23:05;4.53;;;0.82;;
23388;SDS011;11867;51.198;11.966;2023-11-19T10:34:01;4.43;;;1.27;;
23388;SDS011;11867;51.198;11.966;2023-11-19T10:39:30;5.80;;;1.55;;
23388;SDS011;11867;51.198;11.966;2023-11-19T10:45:22;6.47;;;1.60;;
23388;SDS011;11867;51.198;11.966;2023-11-19T10:50:46;8.68;;;1.88;;
23388;SDS011;11867;51.198;11.966;2023-11-19T10:56:17;8.40;;;2.05;;
23388;SDS011;11867;51.198;11.966;2023-11-19T11:01:43;11.82;;;2.60;;
23388;SDS011;11867;51.198;11.966;2023-11-19T11:07:08;12.13;;;2.67;;
23388;SDS011;11867;51.198;11.966;2023-11-19T11:12:33;5.25;;;1.95;;
23388;SDS011;11867;51.198;11.966;2023-11-19T11:17:59;8.95;;;2.42;;
23388;SDS011;11867;51.198;11.966;2023-11-19T11:23:39;10.27;;;2.58;;
23388;SDS011;11867;51.198;11.966;2023-11-19T11:29:20;10.27;;;2.10;;
23388;SDS011;11867;51.198;11.966;2023-11-19T11:34:52;8.73;;;2.25;;
23388;SDS011;11867;51.198;11.966;2023-11-19T11:40:22;8.50;;;2.10;;
23388;SDS011;11867;51.198;11.966;2023-11-19T11:45:49;6.43;;;2.17;;
23388;SDS011;11867;51.198;11.966;2023-11-19T11:51:12;8.48;;;2.15;;
23388;SDS011;11867;51.198;11.966;2023-11-19T11:56:36;4.65;;;1.75;;
23388;SDS011;11867;51.198;11.966;2023-11-19T12:02:01;5.88;;;1.88;;
23388;SDS011;11867;51.198;11.966;2023-11-19T12:07:26;8.63;;;2.47;;
23388;SDS011;11867;51.198;11.966;2023-11-19T12:12:53;7.88;;;2.20;;
23388;SDS011;11867;51.198;11.966;2023-11-19T12:18:22;9.40;;;2.40;;
23388;SDS011;11867;51.198;11.966;2023-11-19T12:23:46;10.10;;;2.65;;
23388;SDS011;11867;51.198;11.966;2023-11-19T12:29:12;9.85;;;3.05;;
23388;SDS011;11867;51.198;11.966;2023-11-19T12:34:37;10.55;;;2.47;;
23388;SDS011;11867;51.198;11.966;2023-11-19T12:40:00;7.60;;;2.53;;
23388;SDS011;11867;51.198;11.966;2023-11-19T12:45:34;11.95;;;2.80;;
23388;SDS011;11867;51.198;11.966;2023-11-19T12:51:00;5.00;;;2.30;;
23388;SDS011;11867;51.198;11.966;2023-11-19T12:56:23;9.35;;;2.30;;
23388;SDS011;11867;51.198;11.966;2023-11-19T13:01:54;9.00;;;2.50;;
23388;SDS011;11867;51.198;11.966;2023-11-19T13:07:21;8.23;;;2.63;;
23388;SDS011;11867;51.198;11.966;2023-11-19T13:12:45;7.95;;;2.00;;
23388;SDS011;11867;51.198;11.966;2023-11-19T13:18:22;6.93;;;2.10;;
23388;SDS011;11867;51.198;11.966;2023-11-19T13:24:06;9.13;;;2.20;;
23388;SDS011;11867;51.198;11.966;2023-11-19T13:29:30;11.13;;;2.95;;
23388;SDS011;11867;51.198;11.966;2023-11-19T13:34:55;8.52;;;2.05;;
23388;SDS011;11867;51.198;11.966;2023-11-19T13:40:19;10.23;;;2.30;;
23388;SDS011;11867;51.198;11.966;2023-11-19T13:45:44;10.55;;;2.38;;
23388;SDS011;11867;51.198;11.966;2023-11-19T13:51:08;11.67;;;2.13;;
23388;SDS011;11867;51.198;11.966;2023-11-19T13:56:33;9.87;;;2.00;;
23388;SDS011;11867;51.198;11.966;2023-11-19T14:01:56;9.85;;;2.28;;
23388;SDS011;11867;51.198;11.966;2023-11-19T14:07:19;12.73;;;2.42;;
23388;SDS011;11867;51.198;11.966;2023-11-19T14:12:43;10.95;;;2.70;;
23388;SDS011;11867;51.198;11.966;2023-11-19T14:18:06;8.23;;;2.58;;
23388;SDS011;11867;51.198;11.966;2023-11-19T14:23:29;11.82;;;2.00;;
23388;SDS011;11867;51.198;11.966;2023-11-19T14:28:54;11.95;;;2.17;;
23388;SDS011;11867;51.198;11.966;2023-11-19T14:39:40;9.60;;;2.40;;
23388;SDS011;11867;51.198;11.966;2023-11-19T14:45:11;10.50;;;2.88;;
23388;SDS011;11867;51.198;11.966;2023-11-19T14:50:35;7.38;;;1.83;;
23388;SDS011;11867;51.198;11.966;2023-11-19T14:55:58;12.50;;;2.42;;
23388;SDS011;11867;51.198;11.966;2023-11-19T15:01:23;13.38;;;2.97;;
23388;SDS011;11867;51.198;11.966;2023-11-19T15:06:46;12.02;;;1.80;;
23388;SDS011;11867;51.198;11.966;2023-11-19T15:12:09;10.05;;;2.33;;
23388;SDS011;11867;51.198;11.966;2023-11-19T15:17:33;13.45;;;2.67;;
23388;SDS011;11867;51.198;11.966;2023-11-19T15:28:21;14.55;;;2.40;;
23388;SDS011;11867;51.198;11.966;2023-11-19T15:33:47;7.45;;;2.30;;
23388;SDS011;11867;51.198;11.966;2023-11-19T15:39:12;10.85;;;2.83;;
23388;SDS011;11867;51.198;11.966;2023-11-19T15:44:38;17.05;;;3.92;;
23388;SDS011;11867;51.198;11.966;2023-11-19T15:50:03;12.70;;;2.35;;
23388;SDS011;11867;51.198;11.966;2023-11-19T15:55:27;12.77;;;3.72;;
23388;SDS011;11867;51.198;11.966;2023-11-19T16:00:50;11.23;;;3.30;;
23388;SDS011;11867;51.198;11.966;2023-11-19T16:06:15;16.10;;;5.32;;
23388;SDS011;11867;51.198;11.966;2023-11-19T16:11:39;14.32;;;4.00;;
23388;SDS011;11867;51.198;11.966;2023-11-19T16:17:17;9.00;;;2.90;;
23388;SDS011;11867;51.198;11.966;2023-11-19T16:22:41;13.90;;;3.17;;
23388;SDS011;11867;51.198;11.966;2023-11-19T16:33:30;14.18;;;3.40;;
23388;SDS011;11867;51.198;11.966;2023-11-19T16:38:58;10.82;;;2.35;;
23388;SDS011;11867;51.198;11.966;2023-11-19T16:44:24;12.45;;;2.78;;
23388;SDS011;11867;51.198;11.966;2023-11-19T16:49:47;11.27;;;2.28;;
23388;SDS011;11867;51.198;11.966;2023-11-19T16:55:13;11.70;;;2.58;;
23388;SDS011;11867;51.198;11.966;2023-11-19T17:00:37;12.35;;;3.00;;
23388;SDS011;11867;51.198;11.966;2023-11-19T17:06:02;11.63;;;2.45;;
23388;SDS011;11867;51.198;11.966;2023-11-19T17:11:27;13.68;;;2.65;;
23388;SDS011;11867;51.198;11.966;2023-11-19T17:16:50;12.65;;;2.92;;
23388;SDS011;11867;51.198;11.966;2023-11-19T17:22:13;16.17;;;3.25;;
23388;SDS011;11867;51.198;11.966;2023-11-19T17:27:38;12.27;;;2.55;;
23388;SDS011;11867;51.198;11.966;2023-11-19T17:33:07;13.68;;;2.63;;
23388;SDS011;11867;51.198;11.966;2023-11-19T17:38:31;12.10;;;2.05;;
23388;SDS011;11867;51.198;11.966;2023-11-19T17:43:56;12.80;;;2.67;;
23388;SDS011;11867;51.198;11.966;2023-11-19T17:49:19;10.02;;;1.95;;
23388;SDS011;11867;51.198;11.966;2023-11-19T17:54:42;11.63;;;2.40;;
23388;SDS011;11867;51.198;11.966;2023-11-19T18:00:07;10.52;;;1.98;;
23388;SDS011;11867;51.198;11.966;2023-11-19T18:05:34;8.65;;;2.05;;
23388;SDS011;11867;51.198;11.966;2023-11-19T18:11:02;7.70;;;2.00;;
23388;SDS011;11867;51.198;11.966;2023-11-19T18:16:27;6.07;;;1.88;;
23388;SDS011;11867;51.198;11.966;2023-11-19T18:21:50;8.88;;;1.70;;
23388;SDS011;11867;51.198;11.966;2023-11-19T18:27:13;6.50;;;1.85;;
23388;SDS011;11867;51.198;11.966;2023-11-19T18:32:38;6.82;;;1.90;;
23388;SDS011;11867;51.198;11.966;2023-11-19T18:38:03;7.88;;;1.75;;
23388;SDS011;11867;51.198;11.966;2023-11-19T18:43:26;9.63;;;2.13;;
23388;SDS011;11867;51.198;11.966;2023-11-19T18:48:50;10.40;;;2.28;;
23388;SDS011;11867;51.198;11.966;2023-11-19T18:54:14;11.90;;;2.72;;
23388;SDS011;11867;51.198;11.966;2023-11-19T18:59:43;9.20;;;2.00;;
23388;SDS011;11867;51.198;11.966;2023-11-19T19:05:08;7.47;;;2.20;;
23388;SDS011;11867;51.198;11.966;2023-11-19T19:10:31;7.93;;;1.80;;
23388;SDS011;11867;51.198;11.966;2023-11-19T19:15:58;10.32;;;2.30;;
23388;SDS011;11867;51.198;11.966;2023-11-19T19:21:23;10.38;;;2.00;;
23388;SDS011;11867;51.198;11.966;2023-11-19T19:26:46;10.10;;;2.70;;
23388;SDS011;11867;51.198;11.966;2023-11-19T19:32:09;8.43;;;2.28;;
23388;SDS011;11867;51.198;11.966;2023-11-19T19:37:33;5.47;;;1.58;;
23388;SDS011;11867;51.198;11.966;2023-11-19T19:42:56;8.07;;;1.90;;
23388;SDS011;11867;51.198;11.966;2023-11-19T19:48:20;9.68;;;2.05;;
23388;SDS011;11867;51.198;11.966;2023-11-19T19:53:44;6.53;;;1.45;;
23388;SDS011;11867;51.198;11.966;2023-11-19T19:59:09;8.98;;;1.58;;
23388;SDS011;11867;51.198;11.966;2023-11-19T20:04:33;5.97;;;1.38;;
23388;SDS011;11867;51.198;11.966;2023-11-19T20:10:18;7.03;;;1.75;;
23388;SDS011;11867;51.198;11.966;2023-11-19T20:15:41;7.45;;;1.92;;
23388;SDS011;11867;51.198;11.966;2023-11-19T20:21:05;8.73;;;2.10;;
23388;SDS011;11867;51.198;11.966;2023-11-19T20:26:34;10.32;;;1.83;;
23388;SDS011;11867;51.198;11.966;2023-11-19T20:31:57;8.95;;;2.13;;
23388;SDS011;11867;51.198;11.966;2023-11-19T20:37:20;5.88;;;1.70;;
23388;SDS011;11867;51.198;11.966;2023-11-19T20:42:45;7.10;;;2.00;;
23388;SDS011;11867;51.198;11.966;2023-11-19T20:48:12;7.18;;;1.90;;
23388;SDS011;11867;51.198;11.966;2023-11-19T20:53:35;8.65;;;1.67;;
23388;SDS011;11867;51.198;11.966;2023-11-19T20:59:02;7.32;;;1.80;;
23388;SDS011;11867;51.198;11.966;2023-11-19T21:04:26;9.27;;;1.85;;
23388;SDS011;11867;51.198;11.966;2023-11-19T21:09:49;5.07;;;1.80;;
23388;SDS011;11867;51.198;11.966;2023-11-19T21:15:13;8.32;;;2.20;;
23388;SDS011;11867;51.198;11.966;2023-11-19T21:20:36;7.07;;;1.63;;
23388;SDS011;11867;51.198;11.966;2023-11-19T21:26:02;4.90;;;1.33;;
23388;SDS011;11867;51.198;11.966;2023-11-19T21:31:28;8.88;;;1.77;;
23388;SDS011;11867;51.198;11.966;2023-11-19T21:36:51;9.38;;;2.13;;
23388;SDS011;11867;51.198;11.966;2023-11-19T21:42:16;5.78;;;1.60;;
23388;SDS011;11867;51.198;11.966;2023-11-19T21:47:40;10.75;;;1.77;;
23388;SDS011;11867;51.198;11.966;2023-11-19T21:53:04;9.77;;;1.92;;
23388;SDS011;11867;51.198;11.966;2023-11-19T21:58:27;7.30;;;1.65;;
23388;SDS011;11867;51.198;11.966;2023-11-19T22:03:54;13.57;;;2.38;;
23388;SDS011;11867;51.198;11.966;2023-11-19T22:09:17;6.07;;;1.75;;
23388;SDS011;11867;51.198;11.966;2023-11-19T22:14:40;12.27;;;2.03;;
23388;SDS011;11867;51.198;11.966;2023-11-19T22:20:05;13.50;;;2.25;;
23388;SDS011;11867;51.198;11.966;2023-11-19T22:25:45;7.63;;;1.80;;
23388;SDS011;11867;51.198;11.966;2023-11-19T22:31:08;7.97;;;1.70;;
23388;SDS011;11867;51.198;11.966;2023-11-19T22:36:33;8.82;;;1.85;;
23388;SDS011;11867;51.198;11.966;2023-11-19T22:41:56;16.17;;;2.17;;
23388;SDS011;11867;51.198;11.966;2023-11-19T22:47:20;12.17;;;2.10;;
23388;SDS011;11867;51.198;11.966;2023-11-19T22:52:44;8.90;;;1.70;;
23388;SDS011;11867;51.198;11.966;2023-11-19T22:58:07;10.98;;;2.53;;
23388;SDS011;11867;51.198;11.966;2023-11-19T23:03:30;10.20;;;2.40;;
23388;SDS011;11867;51.198;11.966;2023-11-19T23:08:55;6.78;;;2.00;;
23388;SDS011;11867;51.198;11.966;2023-11-19T23:14:18;11.52;;;2.15;;
23388;SDS011;11867;51.198;11.966;2023-11-19T23:19:41;12.88;;;2.20;;
23388;SDS011;11867;51.198;11.966;2023-11-19T23:25:06;8.48;;;1.58;;
23388;SDS011;11867;51.198;11.966;2023-11-19T23:30:30;9.60;;;2.03;;
23388;SDS011;11867;51.198;11.966;2023-11-19T23:35:53;12.00;;;1.65;;
23388;SDS011;11867;51.198;11.966;2023-11-19T23:41:20;14.25;;;2.00;;
23388;SDS011;11867;51.198;11.966;2023-11-19T23:46:43;8.10;;;1.10;;
23388;SDS011;11867;51.198;11.966;2023-11-19T23:52:06;10.30;;;1.70;;
